createdAt,value
2018-01-28T00:03:05.402Z,94.00
2018-01-28T00:05:33.086Z,93.20
2018-01-28T00:10:28.341Z,93.20
2018-01-28T00:12:56.044Z,93.70
2018-01-28T00:15:23.677Z,93.50
2018-01-28T00:17:51.600Z,92.30
2018-01-28T00:20:19.281Z,91.60
2018-01-28T00:22:46.896Z,90.80
2018-01-28T00:25:15.489Z,90.40
2018-01-28T00:30:10.798Z,90.90
2018-01-28T00:32:38.412Z,91.90
2018-01-28T00:35:06.089Z,91.70
2018-01-28T00:37:33.703Z,91.20
2018-01-28T00:40:01.346Z,92.70
2018-01-28T00:42:29.045Z,94.60
2018-01-28T00:44:56.658Z,95.30
2018-01-28T00:47:24.287Z,94.60
2018-01-28T00:49:51.991Z,95.20
2018-01-28T00:52:19.610Z,93.80
2018-01-28T00:54:50.393Z,94.30
2018-01-28T00:57:18.076Z,94.60
2018-01-28T00:59:45.712Z,93.30
2018-01-28T01:04:41.035Z,95.30
2018-01-28T01:07:08.661Z,96.20
2018-01-28T01:09:36.287Z,96.90
2018-01-28T01:12:04.048Z,97.20
2018-01-28T01:14:31.672Z,97.40
2018-01-28T01:16:59.291Z,97.00
2018-01-28T01:19:27.008Z,96.70
2018-01-28T01:21:54.638Z,94.60
2018-01-28T01:24:22.259Z,95.70
2018-01-28T01:29:29.043Z,95.40
2018-01-28T01:31:56.733Z,95.90
2018-01-28T01:34:24.363Z,94.60
2018-01-28T01:36:52.477Z,92.00
2018-01-28T01:39:20.139Z,92.70
2018-01-28T01:41:48.600Z,94.20
2018-01-28T01:44:16.222Z,92.70
2018-01-28T01:46:43.910Z,91.60
2018-01-28T01:51:51.284Z,91.10
2018-01-28T01:54:18.916Z,90.30
2018-01-28T01:56:46.560Z,92.20
2018-01-28T01:59:14.759Z,91.00
2018-01-28T02:01:42.391Z,90.30
2018-01-28T02:04:10.030Z,91.80
2018-01-28T02:06:37.715Z,93.50
2018-01-28T02:09:05.337Z,94.30
2018-01-28T02:11:32.969Z,93.70
2018-01-28T02:14:00.651Z,93.90
2018-01-28T02:16:28.287Z,94.40
2018-01-28T02:18:55.901Z,95.30
2018-01-28T02:21:23.573Z,94.30
2018-01-28T02:23:51.210Z,93.10
2018-01-28T02:26:18.834Z,93.60
2018-01-28T02:28:46.521Z,94.30
2018-01-28T02:31:14.183Z,94.60
2018-01-28T02:33:41.807Z,94.40
2018-01-28T02:36:10.475Z,93.30
2018-01-28T02:41:06.119Z,97.00
2018-01-28T02:43:34.778Z,94.80
2018-01-28T02:46:02.400Z,93.00
2018-01-28T02:48:30.050Z,93.00
2018-01-28T02:50:57.747Z,91.90
2018-01-28T02:53:25.617Z,92.70
2018-01-28T02:55:53.241Z,92.10
2018-01-28T03:01:00.018Z,91.40
2018-01-28T03:03:27.696Z,92.60
2018-01-28T03:05:55.321Z,91.70
2018-01-28T03:08:22.946Z,91.30
2018-01-28T03:10:50.630Z,90.50
2018-01-28T03:13:18.257Z,90.90
2018-01-28T03:15:45.942Z,91.20
2018-01-28T03:18:13.633Z,91.30
2018-01-28T03:20:42.087Z,91.30
2018-01-28T03:23:09.721Z,90.40
2018-01-28T03:25:37.399Z,91.30
2018-01-28T03:30:32.644Z,92.30
2018-01-28T03:33:00.355Z,93.50
2018-01-28T03:35:27.973Z,94.60
2018-01-28T03:37:55.636Z,93.00
2018-01-28T03:40:23.306Z,93.70
2018-01-28T03:42:50.927Z,92.50
2018-01-28T03:45:18.547Z,92.40
2018-01-28T03:47:46.231Z,91.50
2018-01-28T03:50:13.851Z,91.30
2018-01-28T03:52:41.475Z,94.10
2018-01-28T03:55:09.157Z,92.70
2018-01-28T03:57:36.795Z,91.60
2018-01-28T04:02:32.684Z,92.00
2018-01-28T04:05:00.337Z,92.00
2018-01-28T04:07:27.965Z,93.50
2018-01-28T04:09:55.663Z,92.70
2018-01-28T04:12:23.285Z,91.40
2018-01-28T04:14:50.920Z,90.80
2018-01-28T04:17:18.605Z,92.50
2018-01-28T04:22:26.142Z,90.30
2018-01-28T04:24:55.424Z,91.60
2018-01-28T04:27:23.056Z,90.50
2018-01-28T04:29:50.749Z,89.80
2018-01-28T04:32:18.357Z,90.30
2018-01-28T04:34:46.349Z,90.10
2018-01-28T04:37:14.072Z,90.30
2018-01-28T04:39:41.695Z,90.70
2018-01-28T04:42:09.320Z,90.60
2018-01-28T04:44:38.961Z,91.50
2018-01-28T04:47:06.609Z,91.00
2018-01-28T04:49:34.234Z,91.30
2018-01-28T04:52:01.940Z,91.90
2018-01-28T04:54:29.626Z,92.40
2018-01-28T04:56:57.263Z,91.20
2018-01-28T04:59:28.418Z,93.20
2018-01-28T05:07:02.822Z,91.20
2018-01-28T05:09:30.469Z,90.20
2018-01-28T05:11:58.133Z,90.30
2018-01-28T05:14:25.758Z,89.30
2018-01-28T05:16:53.387Z,92.70
2018-01-28T05:19:21.074Z,91.10
2018-01-28T05:21:48.697Z,91.10
2018-01-28T05:24:16.326Z,91.00
2018-01-28T05:26:44.967Z,91.80
2018-01-28T05:29:12.595Z,92.30
2018-01-28T05:31:40.269Z,91.90
2018-01-28T05:34:07.941Z,91.90
2018-01-28T05:36:35.574Z,91.20
2018-01-28T05:39:03.223Z,91.90
2018-01-28T05:41:30.906Z,90.40
2018-01-28T05:43:58.534Z,92.20
2018-01-28T05:46:26.164Z,92.60
2018-01-28T05:48:53.847Z,93.60
2018-01-28T05:51:21.486Z,91.60
2018-01-28T05:53:49.107Z,92.30
2018-01-28T05:56:17.664Z,92.10
2018-01-28T05:58:45.286Z,91.00
2018-01-28T06:01:12.916Z,90.90
2018-01-28T06:03:40.596Z,91.00
2018-01-28T06:06:08.232Z,93.00
2018-01-28T06:08:35.857Z,94.80
2018-01-28T06:11:03.546Z,95.40
2018-01-28T06:16:12.559Z,93.40
2018-01-28T06:18:40.178Z,93.70
2018-01-28T06:21:07.818Z,94.40
2018-01-28T06:23:35.516Z,93.00
2018-01-28T06:26:03.145Z,94.70
2018-01-28T06:28:30.803Z,94.10
2018-01-28T06:30:58.492Z,94.10
2018-01-28T06:33:26.112Z,93.40
2018-01-28T06:35:53.745Z,92.70
2018-01-28T06:38:21.435Z,91.60
2018-01-28T06:40:49.063Z,91.60
2018-01-28T06:43:16.690Z,92.40
2018-01-28T06:45:44.403Z,92.70
2018-01-28T06:48:12.698Z,93.30
2018-01-28T06:50:40.316Z,92.60
2018-01-28T06:53:08.958Z,92.00
2018-01-28T06:55:36.591Z,92.90
2018-01-28T06:58:04.229Z,93.30
2018-01-28T07:00:31.916Z,93.60
2018-01-28T07:02:59.541Z,93.50
2018-01-28T07:05:27.164Z,93.00
2018-01-28T07:07:54.855Z,93.70
2018-01-28T07:10:22.475Z,93.30
2018-01-28T07:12:51.066Z,93.80
2018-01-28T07:18:00.224Z,93.80
2018-01-28T07:20:27.932Z,93.60
2018-01-28T07:25:23.182Z,93.00
2018-01-28T07:27:50.874Z,92.40
2018-01-28T07:30:18.555Z,92.90
2018-01-28T07:32:46.183Z,94.10
2018-01-28T07:35:13.874Z,93.30
2018-01-28T07:37:41.511Z,93.30
2018-01-28T07:40:09.155Z,92.40
2018-01-28T07:42:36.837Z,92.80
2018-01-28T07:45:04.467Z,94.20
2018-01-28T07:47:32.103Z,95.40
2018-01-28T07:49:59.801Z,96.20
2018-01-28T07:52:27.433Z,96.30
2018-01-28T07:54:55.380Z,96.90
2018-01-28T07:59:50.678Z,95.90
2018-01-28T08:02:18.310Z,94.70
2018-01-28T08:04:45.985Z,94.30
2018-01-28T08:07:13.607Z,93.80
2018-01-28T08:09:48.031Z,94.40
2018-01-28T08:12:16.592Z,94.50
2018-01-28T08:14:44.224Z,93.80
2018-01-28T08:17:11.906Z,96.90
2018-01-28T08:19:39.541Z,97.00
2018-01-28T08:22:07.154Z,92.30
2018-01-28T08:29:57.828Z,91.30
2018-01-28T08:32:25.446Z,90.50
2018-01-28T08:34:53.080Z,89.20
2018-01-28T08:39:49.279Z,91.80
2018-01-28T08:42:17.868Z,89.90
2018-01-28T08:44:45.543Z,91.10
2018-01-28T08:47:13.171Z,92.40
2018-01-28T08:49:40.798Z,94.20
2018-01-28T08:52:08.479Z,94.80
2018-01-28T08:54:36.116Z,94.00
2018-01-28T08:57:03.737Z,93.60
2018-01-28T08:59:31.434Z,92.90
2018-01-28T09:01:59.063Z,92.40
2018-01-28T09:04:26.720Z,91.10
2018-01-28T09:06:54.384Z,92.30
2018-01-28T09:09:21.998Z,92.10
2018-01-28T09:11:49.624Z,90.10
2018-01-28T09:14:17.296Z,93.50
2018-01-28T09:16:44.953Z,91.80
2018-01-28T09:19:12.545Z,91.30
2018-01-28T09:21:40.228Z,92.00
2018-01-28T09:24:07.862Z,92.90
2018-01-28T09:26:35.479Z,92.30
2018-01-28T09:31:30.798Z,91.90
2018-01-28T09:33:58.416Z,91.50
2018-01-28T09:39:07.194Z,91.20
2018-01-28T09:44:02.587Z,91.20
2018-01-28T09:46:30.223Z,92.50
2018-01-28T09:48:57.908Z,93.10
2018-01-28T09:51:25.526Z,92.40
2018-01-28T09:53:53.144Z,91.20
2018-01-28T09:56:20.838Z,89.80
2018-01-28T09:58:48.447Z,90.30
2018-01-28T10:01:16.086Z,90.10
2018-01-28T10:03:43.772Z,90.60
2018-01-28T10:06:11.399Z,90.00
2018-01-28T10:08:39.039Z,90.70
2018-01-28T10:11:06.731Z,89.60
2018-01-28T10:13:34.869Z,88.60
2018-01-28T10:16:02.496Z,88.60
2018-01-28T10:18:30.189Z,88.70
2018-01-28T10:20:57.818Z,88.50
2018-01-28T10:23:25.511Z,88.20
2018-01-28T10:25:53.133Z,88.50
2018-01-28T10:28:21.617Z,88.90
2018-01-28T10:30:49.191Z,87.80
2018-01-28T10:33:16.873Z,88.30
2018-01-28T10:35:44.493Z,87.20
2018-01-28T10:40:51.795Z,87.80
2018-01-28T10:43:19.256Z,87.00
2018-01-28T10:48:14.556Z,86.50
2018-01-28T10:50:42.201Z,86.20
2018-01-28T10:53:09.832Z,85.80
2018-01-28T10:55:37.523Z,86.30
2018-01-28T10:58:05.156Z,86.70
2018-01-28T11:00:32.789Z,86.90
2018-01-28T11:03:00.474Z,84.40
2018-01-28T11:05:28.095Z,83.90
2018-01-28T11:07:55.717Z,83.10
2018-01-28T11:10:23.422Z,83.40
2018-01-28T11:12:51.043Z,83.00
2018-01-28T11:15:19.171Z,82.00
2018-01-28T11:20:25.681Z,84.10
2018-01-28T11:22:53.410Z,86.90
2018-01-28T11:25:21.038Z,94.60
2018-01-28T11:27:48.659Z,85.60
2018-01-28T11:30:16.362Z,89.30
2018-01-28T11:32:43.990Z,82.40
2018-01-28T11:35:11.636Z,81.80
2018-01-28T11:37:39.321Z,82.90
2018-01-28T11:40:06.954Z,82.40
2018-01-28T11:42:34.586Z,83.00
2018-01-28T11:45:02.263Z,84.10
2018-01-28T11:47:29.900Z,84.20
2018-01-28T11:49:57.517Z,84.90
2018-01-28T11:52:25.197Z,84.00
2018-01-28T11:54:52.829Z,83.30
2018-01-28T11:57:20.480Z,84.10
2018-01-28T11:59:48.191Z,82.20
2018-01-28T12:02:15.812Z,82.20
2018-01-28T12:04:43.454Z,81.60
2018-01-28T12:07:11.138Z,82.10
2018-01-28T12:09:38.833Z,81.30
2018-01-28T12:12:06.451Z,81.30
2018-01-28T12:14:34.131Z,81.00
2018-01-28T12:17:01.754Z,79.80
2018-01-28T12:19:29.385Z,78.70
2018-01-28T12:21:57.065Z,78.60
2018-01-28T12:24:24.700Z,78.60
2018-01-28T12:26:52.361Z,78.20
2018-01-28T12:29:20.008Z,75.30
2018-01-28T12:34:29.736Z,76.50
2018-01-28T12:36:57.350Z,75.50
2018-01-28T12:41:52.670Z,76.40
2018-01-28T12:44:20.294Z,75.30
2018-01-28T12:46:47.906Z,74.20
2018-01-28T12:49:15.641Z,75.20
2018-01-28T12:51:43.228Z,75.10
2018-01-28T12:54:11.681Z,75.30
2018-01-28T12:56:39.357Z,76.30
2018-01-28T12:59:06.978Z,74.30
2018-01-28T13:01:34.602Z,75.50
2018-01-28T13:04:02.302Z,73.40
2018-01-28T13:06:29.942Z,71.60
2018-01-28T13:08:57.586Z,71.70
2018-01-28T13:11:25.305Z,73.70
2018-01-28T13:13:52.982Z,74.60
2018-01-28T13:16:22.055Z,74.40
2018-01-28T13:18:50.624Z,74.50
2018-01-28T13:21:18.125Z,72.00
2018-01-28T13:23:45.752Z,72.50
2018-01-28T13:26:13.474Z,72.90
2018-01-28T13:28:41.076Z,73.60
2018-01-28T13:31:08.694Z,74.10
2018-01-28T13:33:36.383Z,72.50
2018-01-28T13:36:04.004Z,73.00
2018-01-28T13:38:31.626Z,72.80
2018-01-28T13:43:26.956Z,73.20
2018-01-28T13:45:54.577Z,73.90
2018-01-28T13:48:22.289Z,74.70
2018-01-28T13:50:49.917Z,73.10
2018-01-28T13:53:17.533Z,73.70
2018-01-28T13:58:24.305Z,74.60
2018-01-28T14:00:51.985Z,72.70
2018-01-28T14:03:19.613Z,73.10
2018-01-28T14:05:47.242Z,73.60
2018-01-28T14:08:14.921Z,73.60
2018-01-28T14:13:12.564Z,72.10
2018-01-28T14:15:40.247Z,72.30
2018-01-28T14:18:07.875Z,74.10
2018-01-28T14:20:35.778Z,74.30
2018-01-28T14:25:33.004Z,74.40
2018-01-28T14:28:00.630Z,75.60
2018-01-28T14:30:28.304Z,74.50
2018-01-28T14:32:56.334Z,74.30
2018-01-28T14:35:23.881Z,75.10
2018-01-28T14:37:51.563Z,73.80
2018-01-28T14:42:46.829Z,72.30
2018-01-28T14:45:14.521Z,72.70
2018-01-28T14:47:42.155Z,75.00
2018-01-28T14:50:09.782Z,75.10
2018-01-28T14:52:37.462Z,75.70
2018-01-28T14:55:05.506Z,75.70
2018-01-28T14:57:33.140Z,75.00
2018-01-28T15:00:00.816Z,73.90
2018-01-28T15:04:56.068Z,74.80
2018-01-28T15:07:23.811Z,74.40
2018-01-28T15:09:51.444Z,73.80
2018-01-28T15:12:19.053Z,74.70
2018-01-28T15:14:46.732Z,74.40
2018-01-28T15:19:46.288Z,74.70
2018-01-28T15:27:20.687Z,74.70
2018-01-28T15:29:48.316Z,74.20
2018-01-28T15:32:15.945Z,74.70
2018-01-28T15:34:43.656Z,74.80
2018-01-28T15:37:11.294Z,74.00
2018-01-28T15:39:40.618Z,73.60
2018-01-28T15:44:49.328Z,74.10
2018-01-28T15:47:17.001Z,73.70
2018-01-28T15:49:44.623Z,72.90
2018-01-28T15:52:12.254Z,72.70
2018-01-28T15:54:39.928Z,73.10
2018-01-28T15:57:07.561Z,73.80
2018-01-28T15:59:37.209Z,74.20
2018-01-28T16:02:04.888Z,74.10
2018-01-28T16:04:35.957Z,74.80
2018-01-28T16:07:06.805Z,75.80
2018-01-28T16:12:08.342Z,76.60
2018-01-28T16:14:35.994Z,76.20
2018-01-28T16:17:03.792Z,75.80
2018-01-28T16:19:31.393Z,76.20
2018-01-28T16:21:59.392Z,76.50
2018-01-28T16:24:27.019Z,76.90
2018-01-28T16:26:54.647Z,76.60
2018-01-28T16:29:22.324Z,76.70
2018-01-28T16:31:50.978Z,79.20
2018-01-28T16:34:19.495Z,78.90
2018-01-28T16:36:47.202Z,79.50
2018-01-28T16:39:15.612Z,79.70
2018-01-28T16:41:43.222Z,79.90
2018-01-28T16:44:10.907Z,79.70
2018-01-28T16:46:38.531Z,80.70
2018-01-28T16:49:06.151Z,80.90
2018-01-28T16:51:33.870Z,82.50
2018-01-28T16:54:01.490Z,81.30
2018-01-28T16:56:29.118Z,82.70
2018-01-28T16:58:56.813Z,82.90
2018-01-28T17:01:25.859Z,83.60
2018-01-28T17:03:54.582Z,82.80
2018-01-28T17:06:22.898Z,88.60
2018-01-28T17:08:50.531Z,84.60
2018-01-28T17:11:18.156Z,88.50
2018-01-28T17:13:46.932Z,84.30
2018-01-28T17:16:14.557Z,82.80
2018-01-28T17:18:42.181Z,82.40
2018-01-28T17:21:09.855Z,82.30
2018-01-28T17:23:37.474Z,81.60
2018-01-28T17:26:05.097Z,81.90
2018-01-28T17:28:32.842Z,80.80
2018-01-28T17:31:01.125Z,81.00
2018-01-28T17:36:08.491Z,82.20
2018-01-28T17:38:36.254Z,83.10
2018-01-28T17:41:03.874Z,83.20
2018-01-28T17:45:59.182Z,82.60
2018-01-28T17:48:27.766Z,82.00
2018-01-28T17:50:57.426Z,82.30
2018-01-28T17:53:26.714Z,82.10
2018-01-28T17:55:54.367Z,81.90
2018-01-28T17:58:22.743Z,83.10
2018-01-28T18:00:50.216Z,83.00
2018-01-28T18:03:18.645Z,82.60
2018-01-28T18:08:13.979Z,84.40
2018-01-28T18:10:42.158Z,83.50
2018-01-28T18:13:10.331Z,83.40
2018-01-28T18:15:39.913Z,82.50
2018-01-28T18:18:07.598Z,83.20
2018-01-28T18:20:35.261Z,83.90
2018-01-28T18:23:02.938Z,84.10
2018-01-28T18:25:30.577Z,83.70
2018-01-28T18:27:59.658Z,83.20
2018-01-28T18:32:54.916Z,82.50
2018-01-28T18:38:01.686Z,84.40
2018-01-28T18:40:31.101Z,84.40
2018-01-28T18:42:57.520Z,84.40
2018-01-28T18:45:25.067Z,84.20
2018-01-28T18:47:53.177Z,84.50
2018-01-28T18:50:20.828Z,84.10
2018-01-28T18:52:48.458Z,83.70
2018-01-28T18:55:16.686Z,84.20
2018-01-28T18:57:45.403Z,84.90
2018-01-28T19:00:15.647Z,84.10
2018-01-28T19:02:43.188Z,83.80
2018-01-28T19:05:12.180Z,83.90
2018-01-28T19:07:41.072Z,84.10
2018-01-28T19:10:10.347Z,84.50
2018-01-28T19:12:37.736Z,85.00
2018-01-28T19:15:05.397Z,86.80
2018-01-28T19:17:33.084Z,86.00
2018-01-28T19:20:00.705Z,85.60
2018-01-28T19:22:28.334Z,85.70
2018-01-28T19:24:56.028Z,85.70
2018-01-28T19:27:23.663Z,85.70
2018-01-28T19:29:51.289Z,86.20
2018-01-28T19:32:19.011Z,85.30
2018-01-28T19:37:14.251Z,85.80
2018-01-28T19:39:41.946Z,85.70
2018-01-28T19:42:09.761Z,86.50
2018-01-28T19:44:37.555Z,85.70
2018-01-28T19:47:06.860Z,86.30
2018-01-28T19:49:34.445Z,85.20
2018-01-28T19:52:02.066Z,85.10
2018-01-28T19:57:08.890Z,86.10
2018-01-28T19:59:36.580Z,86.40
2018-01-28T20:02:04.221Z,85.90
2018-01-28T20:04:31.838Z,85.90
2018-01-28T20:06:59.523Z,85.40
2018-01-28T20:09:27.153Z,93.40
2018-01-28T20:11:54.788Z,86.90
2018-01-28T20:14:22.468Z,87.80
2018-01-28T20:16:50.100Z,85.80
2018-01-28T20:21:45.437Z,86.70
2018-01-28T20:24:13.147Z,88.20
2018-01-28T20:26:40.821Z,88.10
2018-01-28T20:29:08.508Z,88.30
2018-01-28T20:31:36.340Z,88.10
2018-01-28T20:34:04.283Z,87.20
2018-01-28T20:36:32.139Z,87.40
2018-01-28T20:38:59.761Z,86.20
2018-01-28T20:41:33.295Z,88.10
2018-01-28T20:44:01.378Z,86.70
2018-01-28T20:46:28.923Z,86.70
2018-01-28T20:48:56.654Z,86.20
2018-01-28T20:51:24.291Z,86.40
2018-01-28T20:53:52.088Z,85.90
2018-01-28T20:56:19.774Z,85.90
2018-01-28T20:58:47.410Z,87.80
2018-01-28T21:01:15.024Z,86.70
2018-01-28T21:03:42.695Z,86.40
2018-01-28T21:06:10.331Z,86.80
2018-01-28T21:08:37.982Z,90.90
2018-01-28T21:11:05.711Z,87.00
2018-01-28T21:13:33.328Z,87.00
2018-01-28T21:16:00.977Z,87.40
2018-01-28T21:18:28.668Z,87.30
2018-01-28T21:23:36.325Z,88.80
2018-01-28T21:26:03.983Z,91.80
2018-01-28T21:28:31.613Z,88.30
2018-01-28T21:30:59.294Z,88.00
2018-01-28T21:33:26.915Z,88.50
2018-01-28T21:38:29.323Z,88.10
2018-01-28T21:40:56.989Z,91.10
2018-01-28T21:43:24.586Z,91.50
2018-01-28T21:45:52.292Z,89.10
2018-01-28T21:48:19.914Z,90.30
2018-01-28T21:50:47.574Z,90.10
2018-01-28T21:53:15.244Z,90.60
2018-01-28T21:55:42.861Z,92.00
2018-01-28T21:58:10.500Z,90.60
2018-01-28T22:03:05.824Z,92.60
2018-01-28T22:05:33.490Z,89.90
2018-01-28T22:08:01.143Z,89.30
2018-01-28T22:10:28.988Z,89.20
2018-01-28T22:13:00.719Z,89.40
2018-01-28T22:15:28.385Z,92.10
2018-01-28T22:17:56.024Z,96.70
2018-01-28T22:20:23.652Z,95.00
2018-01-28T22:22:51.327Z,99.50
2018-01-28T22:25:18.950Z,93.30
2018-01-28T22:30:14.263Z,92.60
2018-01-28T22:32:41.912Z,92.50
2018-01-28T22:35:09.519Z,94.70
2018-01-28T22:37:38.384Z,96.20
2018-01-28T22:40:05.858Z,96.60
2018-01-28T22:42:34.466Z,97.00
2018-01-28T22:47:43.270Z,94.80
2018-01-28T22:52:39.054Z,92.60
2018-01-28T22:55:06.677Z,91.40
2018-01-28T22:57:35.301Z,92.60
2018-01-28T23:00:02.939Z,93.10
2018-01-28T23:02:30.557Z,94.00
2018-01-28T23:04:58.240Z,93.30
2018-01-28T23:07:27.116Z,92.90
2018-01-28T23:09:54.739Z,93.30
2018-01-28T23:12:24.270Z,94.10
2018-01-28T23:17:20.382Z,96.10
2018-01-28T23:19:48.907Z,93.80
2018-01-28T23:22:17.617Z,92.50
2018-01-28T23:24:45.236Z,92.20
2018-01-28T23:29:40.543Z,93.20
2018-01-28T23:32:08.169Z,92.60
2018-01-28T23:34:35.881Z,93.40
2018-01-28T23:37:03.512Z,94.10
2018-01-28T23:39:34.160Z,93.90
2018-01-28T23:42:01.843Z,94.00
2018-01-28T23:44:29.504Z,94.60
2018-01-28T23:46:57.088Z,93.90
2018-01-28T23:49:24.770Z,93.20
2018-01-28T23:51:52.387Z,93.10
2018-01-28T23:54:20.029Z,93.20
2018-01-28T23:56:47.733Z,93.80
